createdAt,value
2022-08-16T00:09:36.535Z,1008.2
2022-08-16T00:24:33.657Z,1008.3
2022-08-16T00:39:30.072Z,1008.4
2022-08-16T00:54:26.617Z,1008.4
2022-08-16T01:09:23.013Z,1008.4
2022-08-16T01:24:44.343Z,1008.3
2022-08-16T01:39:14.858Z,1008.4
2022-08-16T01:54:11.118Z,1008.4
2022-08-16T02:09:11.608Z,1008.3
2022-08-16T02:24:03.386Z,1008.3
2022-08-16T02:38:59.498Z,1008.2
2022-08-16T02:53:55.179Z,1008.2
2022-08-16T03:08:52.762Z,1008.3
2022-08-16T03:23:47.856Z,1008.3
2022-08-16T03:38:44.091Z,1008.4
2022-08-16T03:53:40.378Z,1008.4
2022-08-16T04:08:36.644Z,1008.5
2022-08-16T04:23:32.800Z,1008.6
2022-08-16T04:38:30.507Z,1008.6
2022-08-16T04:53:25.585Z,1008.8
2022-08-16T05:08:28.576Z,1008.9
2022-08-16T05:23:18.238Z,1009
2022-08-16T05:38:31.286Z,1009
2022-08-16T05:53:11.485Z,1008.9
2022-08-16T06:08:08.070Z,1009
2022-08-16T06:23:11.956Z,1009.1
2022-08-16T06:38:01.580Z,1009.1
2022-08-16T06:53:00.129Z,1009.2
2022-08-16T07:07:55.028Z,1009.2
2022-08-16T07:22:52.797Z,1009.3
2022-08-16T07:37:48.370Z,1009.4
2022-08-16T07:52:45.088Z,1009.4
2022-08-16T08:07:45.035Z,1009.4
2022-08-16T08:22:38.549Z,1009.4
2022-08-16T08:37:54.940Z,1009.5
2022-08-16T08:52:33.820Z,1009.6
2022-08-16T09:07:28.556Z,1009.6
2022-08-16T09:22:25.122Z,1009.7
2022-08-16T09:37:29.268Z,1009.7
2022-08-16T09:52:19.221Z,1009.6
2022-08-16T10:07:16.813Z,1009.6
2022-08-16T10:22:14.353Z,1009.5
2022-08-16T10:37:11.808Z,1009.5
2022-08-16T10:52:18.564Z,1009.5
2022-08-16T11:07:07.852Z,1009.5
2022-08-16T11:22:23.567Z,1009.5
2022-08-16T11:36:59.589Z,1009.6
2022-08-16T11:51:55.855Z,1009.4
2022-08-16T12:06:53.645Z,1009.4
2022-08-16T12:21:57.994Z,1009.4
2022-08-16T12:36:46.622Z,1009.3
2022-08-16T12:51:57.770Z,1009.3
2022-08-16T13:06:38.744Z,1009.2
2022-08-16T13:36:48.347Z,1009.2
2022-08-16T13:51:25.737Z,1009
2022-08-16T14:06:21.867Z,1009.1
2022-08-16T14:21:17.892Z,1009.1
2022-08-16T14:36:18.576Z,1009.1
2022-08-16T14:51:09.198Z,1008.9
2022-08-16T15:06:05.326Z,1008.9
2022-08-16T15:21:01.079Z,1008.9
2022-08-16T15:35:58.003Z,1009
2022-08-16T15:50:52.238Z,1009
2022-08-16T16:05:48.506Z,1009
2022-08-16T16:20:44.193Z,1008.9
2022-08-16T16:35:40.645Z,1009
2022-08-16T16:50:36.835Z,1009
2022-08-16T17:05:32.823Z,1008.9
2022-08-16T17:20:28.621Z,1008.9
2022-08-16T17:35:24.608Z,1008.9
2022-08-16T17:50:21.002Z,1009
2022-08-16T18:05:17.073Z,1009
2022-08-16T18:20:12.657Z,1009
2022-08-16T18:35:08.510Z,1009
2022-08-16T18:50:04.495Z,1009.2
2022-08-16T19:05:00.356Z,1009.3
2022-08-16T19:19:56.270Z,1009.5
2022-08-16T19:34:52.140Z,1009.6
2022-08-16T19:49:48.170Z,1009.8
2022-08-16T20:04:43.896Z,1010
2022-08-16T20:19:40.224Z,1010.2
2022-08-16T20:34:35.469Z,1010.3
2022-08-16T20:49:31.620Z,1010.6
2022-08-16T22:04:36.459Z,1010.2
2022-08-16T22:19:08.248Z,1010.4
2022-08-16T22:34:04.741Z,1010.5
2022-08-16T22:49:00.681Z,1010.5
2022-08-16T23:03:56.576Z,1010.6
2022-08-16T23:18:52.639Z,1010.7
2022-08-16T23:33:48.612Z,1010.5
2022-08-16T23:49:45.565Z,1010.4
